To NAV CANADA Home Page Login to a new session Search on AWWS site Feedback and Comments Disclaimer Vers la page française équivalente Tips FAQ What's new on the site To the Forecasts and Observations / NOTAM section To "File a Flight Plan" website Publications and other links Update of the User's profile FIC Telephone Numbers My Weather Data Folder Route Weather Data Regional Weather Data Local Weather Data To the Forecasts and Observations / NOTAM section
Request Generated 08/22/2017 at 01:43:14 UTC . Weather information available at that time is displayed.


Save this request

METAR/TAF

KAMLOOPS/BC    

METAR CYKA 220100Z 13002KT 40SM BKN220 28/07 A3002 RMK CI5 SLP164
DENSITY ALT 2800FT=
METAR CYKA 220000Z VRB02KT 40SM BKN220 29/07 A3004 RMK CI5 SLP170
DENSITY ALT 2900FT=
METAR CYKA 212300Z 11003KT 060V150 40SM BKN220 29/07 A3005 RMK CI7
SLP176 DENSITY ALT 2900FT=

TAF CYKA 220038Z 2201/2213 VRB03KT P6SM SCT220
RMK NXT FCST BY 220700Z=

CLINTON BC/AUTO OBS    

CWCL - METAR not available

CWCL - No TAF is issued for this station

LYTTON BC/OBS    (show WxCam)

METAR CWLY 220100Z AUTO 00000KT 9SM CLR 32/09 A2995 RMK SLP141
DENSITY ALT 2700FT=
METAR CWLY 220000Z AUTO 00000KT 9SM CLR 32/08 A2998 RMK SLP149
DENSITY ALT 2800FT=
METAR CWLY 212300Z AUTO 00000KT 9SM CLR 31/08 A3001 RMK SLP159
DENSITY ALT 2600FT=

CWLY - No TAF is issued for this station

CLINTON/BLEIBLER RANCH/BC    (show WxCam)

METAR CYIN 220100Z AUTO 08004KT 020V100 9SM FEW085 SCT160 24/08 A3014
RMK SLP203 DENSITY ALT 5300FT=
METAR CYIN 220000Z AUTO 07004KT 9SM FEW160 24/08 A3015 RMK SLP205
DENSITY ALT 5300FT=
METAR CYIN 212300Z AUTO VRB05KT 9SM BKN080 BKN180 23/08 A3017 RMK
SLP211 DENSITY ALT 5200FT=

CYIN - No TAF is issued for this station



Your time UTC time
Weather data provided by Environment Canada and NAV CANADA